Latest Weather Observations for Newcastle Nobbys

IDN60801

Issued at 3:32 pm EST Friday 4 September 2015 (issued every 30 minutes, with the page automatically refreshed every 10 minutes)

About weather observations | Map of weather stations | Latest weather observations for NSW | Other Formats
Station Details ID: 061055 Name: NEWCASTLE NOBBYS SIGNAL STATION AWS Lat: -32.92 Lon: 151.80 Height: 33.0 m
Data from the previous 72 hours. | See also: Recent months at Newcastle Nobbys
Date/Time
EST
Temp
°C
App
Temp
°C
Dew
Point
Rel
Hum
%
Delta-T
°C
Wind Press
QNH
hPa
Press
MSL
hPa
Rain
since 9 am
mm
Dir
 
Spd
km/h
Gust
km/h
Spd
kts
Gust
kts
04/03:30pm 16.9 12.4 10.1 64 3.6 S 24 30 13 16 - - 4.4
04/03:00pm 16.8 12.5 10.6 67 3.3 S 24 32 13 17 - - 4.4
04/02:30pm 16.5 11.4 10.6 68 3.1 S 28 39 15 21 - - 4.4
04/02:00pm 16.0 11.6 12.9 82 1.7 S 28 39 15 21 - - 4.4
04/01:30pm 14.6 14.0 13.5 93 0.6 SSW 9 15 5 8 - - 4.2
04/01:00pm 14.7 13.6 13.1 90 0.9 SW 11 19 6 10 - - 3.8
04/12:30pm 15.0 10.2 12.9 87 1.2 SSE 30 37 16 20 - - 3.2
04/12:00pm 14.7 12.2 13.4 92 0.7 SW 19 32 10 17 - - 3.2
04/11:30am 14.6 10.8 13.6 94 0.6 SW 26 41 14 22 - - 3.2
04/11:00am 14.2 11.4 13.1 93 0.6 SW 20 33 11 18 - - 2.8
04/10:30am 14.5 13.1 13.5 94 0.6 SW 13 20 7 11 - - 2.4
04/10:00am 14.3 12.1 13.2 93 0.6 SW 17 26 9 14 - - 1.6
04/09:30am 14.0 11.0 12.7 92 0.7 SW 20 30 11 16 - - 0.0
04/09:00am 13.9 11.9 12.8 93 0.6 WSW 15 22 8 12 - - 5.4
04/08:30am 13.7 10.7 12.4 92 0.7 WSW 20 32 11 17 - - 4.8
04/08:00am 13.7 11.2 12.3 91 0.8 WSW 17 28 9 15 - - 4.2
04/07:30am 14.1 11.5 12.1 88 1.1 SW 17 33 9 18 - - 3.6
04/07:00am 13.9 10.9 11.8 87 1.1 WSW 19 37 10 20 - - 3.6
04/06:30am 14.1 11.1 11.8 86 1.2 SW 19 30 10 16 - - 3.6
04/06:00am 14.0 10.7 11.5 85 1.3 SW 20 33 11 18 - - 3.6
04/05:30am 13.6 10.7 11.1 85 1.3 SW 17 28 9 15 - - 3.6
04/05:00am 13.8 10.4 11.3 85 1.3 SW 20 35 11 19 - - 3.6
04/04:30am 13.8 10.0 11.3 85 1.3 SW 22 39 12 21 - - 3.6
04/04:00am 13.6 10.5 11.5 87 1.1 SW 19 32 10 17 - - 3.6
04/03:30am 13.5 10.1 11.4 87 1.1 WSW 20 35 11 19 - - 3.6
04/03:00am 13.5 10.2 11.7 89 1.0 SW 20 35 11 19 - - 3.6
04/02:30am 14.1 10.5 11.8 86 1.2 SW 22 35 12 19 - - 3.4
04/02:00am 14.1 10.0 11.4 84 1.4 SW 24 37 13 20 - - 3.4
04/01:30am 13.9 10.7 11.2 84 1.4 SW 19 41 10 22 - - 3.2
04/01:00am 13.6 10.4 11.1 85 1.3 SW 19 39 10 21 - - 3.2
04/12:30am 13.8 9.8 10.4 80 1.8 WSW 22 39 12 21 - - 1.0
04/12:00am 15.0 9.8 8.9 67 3.1 SW 26 44 14 24 - - 0.2
 
Date/Time
EST
Temp
°C
App
Temp
°C
Dew
Point
Rel
Hum
%
Delta-T
°C
Wind Press
QNH
hPa
Press
MSL
hPa
Rain
since 9 am
mm
Dir
 
Spd
km/h
Gust
km/h
Spd
kts
Gust
kts
03/11:30pm 14.9 10.0 8.6 66 3.2 WSW 24 39 13 21 - - 0.2
03/11:00pm 14.4 9.9 8.4 67 3.0 WSW 22 30 12 16 - - 0.2
03/10:30pm 15.5 11.0 6.8 56 4.3 WSW 20 32 11 17 - - 0.0
03/10:00pm 15.6 9.8 6.1 53 4.6 W 26 33 14 18 - - 0.0
03/09:30pm 15.5 10.2 6.8 56 4.3 W 24 30 13 16 - - 0.0
03/09:00pm 14.6 10.4 7.4 62 3.6 WNW 19 26 10 14 - - 0.0
03/08:30pm 14.3 9.9 7.6 64 3.3 WNW 20 24 11 13 - - 0.0
03/08:00pm 14.3 10.0 7.8 65 3.2 WNW 20 28 11 15 - - 0.0
03/07:30pm 14.4 10.2 8.1 66 3.1 WNW 20 28 11 15 - - 0.0
03/07:00pm 14.7 10.5 8.2 65 3.3 WNW 20 30 11 16 - - 0.0
03/06:30pm 15.2 9.9 8.4 64 3.4 WNW 26 33 14 18 - - 0.0
03/06:00pm 15.5 10.6 8.5 63 3.6 WNW 24 32 13 17 - - 0.0
03/05:30pm 16.0 10.4 8.7 62 3.7 WNW 28 37 15 20 - - 0.0
03/05:00pm 16.3 10.3 8.5 60 4.0 WNW 30 43 16 23 - - 0.0
03/04:30pm 16.9 9.9 8.6 58 4.3 WNW 35 46 19 25 - - 0.0
03/04:00pm 17.2 10.8 8.6 57 4.4 WNW 32 44 17 24 - - 0.0
03/03:30pm 16.9 10.6 8.8 59 4.2 WNW 32 44 17 24 - - 0.0
03/03:00pm 15.5 9.3 9.4 67 3.2 NW 32 43 17 23 - - 0.0
03/02:30pm 14.5 8.7 9.3 71 2.7 NW 30 39 16 21 - - 0.0
03/02:00pm 14.9 8.5 9.5 70 2.8 NW 33 48 18 26 - - 0.0
03/01:30pm 16.5 10.3 9.4 63 3.7 NW 32 39 17 21 - - 0.0
03/01:00pm 16.9 12.0 8.6 58 4.3 NW 24 33 13 18 - - 0.0
03/12:30pm 16.8 11.9 8.5 58 4.2 WNW 24 32 13 17 - - 0.0
03/12:00pm 17.1 12.2 8.5 57 4.4 WNW 24 35 13 19 - - 0.0
03/11:30am 18.0 12.7 8.6 54 4.9 WNW 26 37 14 20 - - 0.0
03/11:00am 17.6 11.6 8.5 55 4.7 WNW 30 43 16 23 - - 0.0
03/10:30am 16.9 10.2 8.3 57 4.4 WNW 33 48 18 26 - - 0.0
03/10:00am 17.1 10.8 8.8 58 4.3 NW 32 46 17 25 - - 0.0
03/09:30am 17.0 11.6 9.4 61 4.0 NW 28 43 15 23 - - 0.0
03/09:00am 16.1 9.4 9.5 65 3.4 NW 35 52 19 28 - - 2.8
03/08:30am 15.5 8.6 10.3 71 2.7 NW 37 48 20 26 - - 2.8
03/08:00am 14.9 9.1 10.9 77 2.1 NW 32 43 17 23 - - 2.8
03/07:30am 14.0 9.5 11.3 84 1.4 NW 26 33 14 18 - - 2.8
03/07:00am 13.2 10.5 11.6 90 0.9 NNW 17 26 9 14 - - 2.8
03/06:30am 13.0 9.8 11.4 90 0.8 NNW 19 24 10 13 - - 2.8
03/06:00am 13.4 10.1 11.6 89 1.0 NNW 20 24 11 13 - - 2.8
03/05:30am 13.4 10.1 11.6 89 1.0 NNW 20 26 11 14 - - 2.8
03/05:00am 13.6 10.5 11.7 88 1.0 NNW 19 26 10 14 - - 2.8
03/04:33am 13.8 7.8 12.0 89 1.0 N 35 48 19 26 - - 2.8
03/04:30am 13.9 7.1 12.1 89 1.0 NNE 39 48 21 26 - - 2.8
03/04:00am 13.6 7.7 12.3 92 0.7 NNE 35 43 19 23 - - 2.8
03/03:30am 13.1 10.7 11.3 89 1.0 NNW 15 30 8 16 - - 2.2
03/03:00am 13.2 9.8 10.7 85 1.3 NNE 19 24 10 13 - - 1.8
03/02:30am 12.9 10.9 10.3 84 1.3 NNE 11 13 6 7 - - 1.4
03/02:00am 13.6 10.9 10.2 80 1.8 N 15 17 8 9 - - 1.0
03/01:30am 14.3 12.5 9.5 73 2.5 NNW 9 15 5 8 - - 0.2
03/01:00am 14.2 12.4 9.6 74 2.4 WNW 9 11 5 6 - - 0.0
03/12:30am 14.8 12.6 9.4 70 2.8 NNW 11 20 6 11 - - 0.0
03/12:00am 15.4 11.2 9.7 69 3.0 NNW 22 28 12 15 - - 0.0
 
Date/Time
EST
Temp
°C
App
Temp
°C
Dew
Point
Rel
Hum
%
Delta-T
°C
Wind Press
QNH
hPa
Press
MSL
hPa
Rain
since 9 am
mm
Dir
 
Spd
km/h
Gust
km/h
Spd
kts
Gust
kts
02/11:30pm 16.3 13.7 10.6 69 3.0 NE 15 24 8 13 - - 0.0
02/11:00pm 15.9 13.2 10.2 69 3.0 NE 15 20 8 11 - - 0.0
02/10:30pm 16.1 13.9 10.8 71 2.8 NE 13 19 7 10 - - 0.0
02/10:00pm 16.2 13.2 10.5 69 3.0 NE 17 24 9 13 - - 0.0
02/09:30pm 16.5 13.7 10.1 66 3.4 NE 15 22 8 12 - - 0.0
02/09:00pm 16.4 12.5 9.3 63 3.7 NE 20 30 11 16 - - 0.0
02/08:30pm 16.3 12.4 9.3 63 3.6 NNE 20 24 11 13 - - 0.0
02/08:00pm 16.5 12.6 8.7 60 4.0 NE 19 30 10 16 - - 0.0
02/07:30pm 16.6 12.7 8.8 60 4.0 NE 19 30 10 16 - - 0.0
02/07:00pm 16.7 13.3 9.1 61 3.9 NE 17 26 9 14 - - 0.0
02/06:30pm 16.9 13.4 8.8 59 4.2 NE 17 24 9 13 - - 0.0
02/06:00pm 17.1 13.0 10.2 64 3.7 NE 22 28 12 15 - - 0.0
02/05:30pm 17.3 13.3 9.2 59 4.2 NE 20 28 11 15 - - 0.0
02/05:00pm 17.8 14.1 9.4 58 4.4 ENE 19 26 10 14 - - 0.0
02/04:30pm 18.0 16.1 10.6 62 4.0 ENE 11 17 6 9 - - 0.0
02/04:00pm 18.6 14.8 9.9 57 4.6 ENE 20 28 11 15 - - 0.0
02/03:30pm 18.6 14.5 8.0 50 5.4 ENE 19 24 10 13 - - 0.0
02/03:00pm 18.7 15.8 9.5 55 4.9 E 15 17 8 9 - - 0.0
02/02:30pm 17.4 13.5 8.5 56 4.6 E 19 22 10 12 - - 0.0
02/02:00pm 18.2 14.6 8.5 53 5.0 E 17 19 9 10 - - 0.0
02/01:30pm 19.0 17.4 8.9 52 5.3 NE 7 11 4 6 - - 0.0
02/01:00pm 18.9 15.3 6.7 45 6.1 N 15 22 8 12 - - 0.0
02/12:30pm 18.8 14.7 6.3 44 6.2 N 17 22 9 12 - - 0.0
02/12:00pm 18.2 14.7 7.3 49 5.5 N 15 17 8 9 - - 0.0
02/11:30am 17.6 15.1 8.2 54 4.8 N 11 15 6 8 - - 0.0
02/11:00am 17.1 14.7 8.5 57 4.4 N 11 13 6 7 - - 0.0
02/10:30am 14.9 11.7 7.0 59 3.9 N 13 17 7 9 - - 0.0
02/10:00am 15.4 10.5 5.3 51 4.8 NNW 20 24 11 13 - - 0.0
02/09:30am 16.1 12.3 5.7 50 5.0 NW 15 20 8 11 - - 0.0
02/09:00am 15.6 11.0 5.8 52 4.7 NW 19 22 10 12 - - 0.0
02/08:30am 14.0 9.7 5.4 56 4.0 WNW 17 20 9 11 - - 0.0
02/08:00am 13.2 9.4 5.9 61 3.5 WNW 15 17 8 9 - - 0.0
02/07:30am 11.4 8.0 5.7 68 2.6 NW 13 17 7 9 - - 0.0
02/07:00am 9.9 6.4 5.3 73 2.1 WNW 13 15 7 8 - - 0.0
02/06:30am 9.4 5.8 5.0 74 2.0 WNW 13 19 7 10 - - 0.0
02/06:00am 9.6 5.6 4.8 72 2.2 NW 15 19 8 10 - - 0.0
02/05:30am 9.4 5.7 4.4 71 2.2 WNW 13 19 7 10 - - 0.0
02/05:00am 9.7 5.9 4.1 68 2.5 WNW 13 17 7 9 - - 0.0
02/04:30am 10.3 5.5 4.5 67 2.6 WNW 19 24 10 13 - - 0.0
02/04:00am 10.1 6.7 3.8 65 2.8 WNW 11 15 6 8 - - 0.0
02/03:30am 10.4 6.3 4.1 65 2.8 WNW 15 17 8 9 - - 0.0
02/03:00am 10.7 7.0 4.6 66 2.7 NW 13 17 7 9 - - 0.0
02/02:30am 10.6 6.5 4.3 65 2.8 WNW 15 17 8 9 - - 0.0
02/02:00am 11.3 7.9 4.1 61 3.2 WNW 11 15 6 8 - - 0.0
02/01:30am 11.4 8.0 3.9 60 3.3 WNW 11 15 6 8 - - 0.0
02/01:00am 11.4 8.7 3.7 59 3.4 WNW 7 9 4 5 - - 0.0
02/12:30am 11.9 9.6 4.6 61 3.3 WNW 6 7 3 4 - - 0.0
02/12:00am 12.3 9.7 3.3 54 4.0 NW 6 7 3 4 - - 0.0
 
Date/Time
EST
Temp
°C
App
Temp
°C
Dew
Point
Rel
Hum
%
Delta-T
°C
Wind Press
QNH
hPa
Press
MSL
hPa
Rain
since 9 am
mm
Dir
 
Spd
km/h
Gust
km/h
Spd
kts
Gust
kts
01/11:30pm 12.4 9.4 3.9 56 3.8 WNW 9 13 5 7 - - 0.0
01/11:00pm 12.4 9.6 5.1 61 3.4 NW 9 13 5 7 - - 0.0
01/10:30pm 12.5 9.2 4.5 58 3.6 NW 11 15 6 8 - - 0.0
01/10:00pm 13.4 9.4 4.8 56 4.0 NW 15 19 8 10 - - 0.0
01/09:30pm 14.4 11.1 4.7 52 4.5 NW 11 15 6 8 - - 0.0
01/09:00pm 14.2 12.5 8.4 68 2.9 NW 7 11 4 6 - - 0.0
01/08:30pm 14.4 13.1 9.2 71 2.7 NNW 6 7 3 4 - - 0.0
01/08:00pm 15.3 13.6 8.5 64 3.4 NW 7 9 4 5 - - 0.0
01/07:30pm 15.7 13.8 6.7 55 4.4 N 6 7 3 4 - - 0.0
01/07:00pm 15.4 14.0 7.4 59 4.0 E 4 6 2 3 - - 0.0
01/06:30pm 15.4 13.5 6.7 56 4.3 ESE 6 7 3 4 - - 0.0
01/06:00pm 15.5 13.6 6.5 55 4.4 SE 6 9 3 5 - - 0.0
01/05:30pm 15.7 13.5 6.4 54 4.5 SE 7 9 4 5 - - 0.0
01/05:00pm 16.3 13.4 6.4 52 4.8 SE 11 13 6 7 - - 0.0
01/04:30pm 16.6 13.7 6.4 51 5.0 SE 11 15 6 8 - - 0.0
01/04:00pm 16.7 13.4 6.2 50 5.1 SSE 13 15 7 8 - - 0.0

Other Formats:

Comma delimited format used in spreadsheet applications
http://www.bom.gov.au/fwo/IDN60801/IDN60801.94774.axf

JavaScript Object Notation format (JSON) in row-major order
http://www.bom.gov.au/fwo/IDN60801/IDN60801.94774.json